createdAt,value
2023-02-19T00:01:54.005Z,97930.63
2023-02-19T00:04:23.799Z,97945.53
2023-02-19T00:06:52.065Z,97938.66
2023-02-19T00:09:21.913Z,97931.28
2023-02-19T00:11:50.118Z,97913.44
2023-02-19T00:14:21.026Z,97909.63
2023-02-19T00:16:49.992Z,97925.78
2023-02-19T00:19:19.963Z,97918.06
2023-02-19T00:21:48.440Z,97927.97
2023-02-19T00:24:16.748Z,97918.56
2023-02-19T00:26:47.342Z,97931.41
2023-02-19T00:29:17.621Z,97941.47
2023-02-19T00:31:46.570Z,97948.06
2023-02-19T00:34:15.495Z,97947.75
2023-02-19T00:36:44.483Z,97933.47
2023-02-19T00:39:16.128Z,97917.94
2023-02-19T00:41:45.643Z,97916.72
2023-02-19T00:44:15.893Z,97913.34
2023-02-19T00:46:45.990Z,97915.31
2023-02-19T00:49:17.598Z,97904.88
2023-02-19T00:51:45.723Z,97920.25
2023-02-19T00:54:14.144Z,97924.47
2023-02-19T00:56:42.407Z,97901.59
2023-02-19T00:59:10.911Z,97898.19
2023-02-19T01:01:40.721Z,97910.03
2023-02-19T01:04:09.130Z,97896.66
2023-02-19T01:06:37.552Z,97897.88
2023-02-19T01:09:07.177Z,97899.72
2023-02-19T01:11:36.032Z,97899.50
2023-02-19T01:14:05.132Z,97904.81
2023-02-19T01:16:33.290Z,97891.59
2023-02-19T01:19:02.769Z,97890.34
2023-02-19T01:21:31.968Z,97891.06
2023-02-19T01:24:00.249Z,97896.59
2023-02-19T01:26:30.185Z,97882.63
2023-02-19T01:28:59.698Z,97881.75
2023-02-19T01:31:28.803Z,97888.75
2023-02-19T01:33:59.208Z,97893.59
2023-02-19T01:36:29.422Z,97894.28
2023-02-19T01:38:57.693Z,97887.00
2023-02-19T01:41:26.935Z,97883.97
2023-02-19T01:44:02.214Z,97884.69
2023-02-19T01:46:32.792Z,97879.59
2023-02-19T01:49:05.691Z,97879.03
2023-02-19T01:51:37.678Z,97865.66
2023-02-19T01:54:09.401Z,97865.84
2023-02-19T01:56:39.537Z,97866.09
2023-02-19T01:59:08.567Z,97878.78
2023-02-19T02:01:38.565Z,97863.31
2023-02-19T02:04:08.044Z,97861.59
2023-02-19T02:06:43.533Z,97870.59
2023-02-19T02:09:29.228Z,97861.06
2023-02-19T02:11:57.329Z,97862.84
2023-02-19T02:14:28.614Z,97869.44
2023-02-19T02:17:03.206Z,97872.53
2023-02-19T02:19:44.993Z,97857.06
2023-02-19T02:22:20.629Z,97873.44
2023-02-19T02:25:06.445Z,97863.38
2023-02-19T02:27:50.315Z,97865.44
2023-02-19T02:30:40.721Z,97860.44
2023-02-19T02:33:18.009Z,97870.31
2023-02-19T02:35:51.477Z,97869.53
2023-02-19T02:38:26.424Z,97871.34
2023-02-19T02:40:56.640Z,97872.19
2023-02-19T02:43:25.486Z,97867.47
2023-02-19T02:45:54.964Z,97870.78
2023-02-19T02:48:34.003Z,97858.34
2023-02-19T02:51:07.798Z,97857.53
2023-02-19T02:54:05.436Z,97856.88
2023-02-19T02:56:35.531Z,97869.22
2023-02-19T02:59:08.259Z,97855.78
2023-02-19T03:02:00.673Z,97849.69
2023-02-19T03:04:34.049Z,97844.88
2023-02-19T03:07:08.357Z,97847.25
2023-02-19T03:09:43.238Z,97845.28
2023-02-19T03:12:36.177Z,97858.91
2023-02-19T03:15:27.663Z,97855.22
2023-02-19T03:18:19.460Z,97853.47
2023-02-19T03:20:51.918Z,97850.03
2023-02-19T03:23:44.635Z,97861.31
2023-02-19T03:26:13.812Z,97851.63
2023-02-19T03:29:08.850Z,97850.53
2023-02-19T03:31:42.340Z,97845.25
2023-02-19T03:34:16.133Z,97835.06
2023-02-19T03:36:46.997Z,97832.25
2023-02-19T03:39:21.259Z,97834.03
2023-02-19T03:41:58.305Z,97826.31
2023-02-19T03:44:35.886Z,97826.09
2023-02-19T03:47:13.418Z,97826.47
2023-02-19T03:49:49.108Z,97820.94
2023-02-19T03:52:25.094Z,97813.75
2023-02-19T03:54:58.332Z,97821.03
2023-02-19T03:57:35.039Z,97816.94
2023-02-19T04:00:10.101Z,97814.63
2023-02-19T04:02:45.690Z,97816.84
2023-02-19T04:05:19.698Z,97811.63
2023-02-19T04:07:51.083Z,97819.28
2023-02-19T04:10:25.006Z,97808.53
2023-02-19T04:13:00.644Z,97810.91
2023-02-19T04:15:33.386Z,97803.28
2023-02-19T04:18:05.727Z,97790.56
2023-02-19T04:20:40.994Z,97795.13
2023-02-19T04:23:09.804Z,97796.59
2023-02-19T04:25:40.702Z,97780.81
2023-02-19T04:28:10.065Z,97779.91
2023-02-19T04:30:38.253Z,97771.59
2023-02-19T04:33:06.347Z,97774.47
2023-02-19T04:35:35.818Z,97771.91
2023-02-19T04:38:03.892Z,97757.38
2023-02-19T04:40:32.125Z,97761.16
2023-02-19T04:43:00.146Z,97749.88
2023-02-19T04:45:28.222Z,97760.84
2023-02-19T04:47:56.311Z,97767.47
2023-02-19T04:50:24.335Z,97772.16
2023-02-19T04:52:53.789Z,97777.50
2023-02-19T04:55:21.909Z,97774.47
2023-02-19T04:57:50.031Z,97765.13
2023-02-19T05:00:18.186Z,97776.09
2023-02-19T05:02:46.247Z,97767.38
2023-02-19T05:05:14.354Z,97770.59
2023-02-19T05:07:42.397Z,97763.22
2023-02-19T05:10:11.859Z,97761.28
2023-02-19T05:12:39.895Z,97752.84
2023-02-19T05:15:08.451Z,97756.88
2023-02-19T05:17:36.977Z,97757.38
2023-02-19T05:20:05.449Z,97756.63
2023-02-19T05:22:33.520Z,97765.94
2023-02-19T05:25:01.548Z,97752.22
2023-02-19T05:27:33.015Z,97739.34
2023-02-19T05:30:01.114Z,97742.00
2023-02-19T05:32:29.212Z,97736.41
2023-02-19T05:34:57.330Z,97731.09
2023-02-19T05:37:25.338Z,97730.75
2023-02-19T05:39:53.395Z,97728.53
2023-02-19T05:42:21.541Z,97728.00
2023-02-19T05:44:50.986Z,97720.41
2023-02-19T05:47:18.997Z,97715.69
2023-02-19T05:49:47.096Z,97713.84
2023-02-19T05:52:15.135Z,97721.06
2023-02-19T05:54:43.277Z,97707.28
2023-02-19T05:57:11.459Z,97704.16
2023-02-19T05:59:39.507Z,97717.13
2023-02-19T06:02:08.952Z,97716.88
2023-02-19T06:04:37.468Z,97724.28
2023-02-19T06:07:05.532Z,97720.63
2023-02-19T06:09:33.576Z,97731.69
2023-02-19T06:12:01.615Z,97730.69
2023-02-19T06:14:29.767Z,97717.63
2023-02-19T06:16:57.786Z,97710.53
2023-02-19T06:19:27.211Z,97713.34
2023-02-19T06:21:55.269Z,97705.13
2023-02-19T06:24:23.482Z,97700.69
2023-02-19T06:26:51.520Z,97705.28
2023-02-19T06:29:19.659Z,97700.06
2023-02-19T06:31:47.808Z,97696.88
2023-02-19T06:34:15.921Z,97704.19
2023-02-19T06:36:45.346Z,97695.81
2023-02-19T06:39:13.379Z,97704.75
2023-02-19T06:41:41.408Z,97713.72
2023-02-19T06:44:09.502Z,97712.34
2023-02-19T06:46:37.988Z,97709.41
2023-02-19T06:49:06.575Z,97715.81
2023-02-19T06:51:34.952Z,97714.47
2023-02-19T06:54:04.510Z,97725.22
2023-02-19T06:56:34.084Z,97719.91
2023-02-19T06:59:04.666Z,97713.78
2023-02-19T07:01:34.200Z,97717.69
2023-02-19T07:04:02.766Z,97705.03
2023-02-19T07:06:31.570Z,97703.84
2023-02-19T07:09:00.448Z,97708.81
2023-02-19T07:11:31.975Z,97708.34
2023-02-19T07:14:01.682Z,97706.47
2023-02-19T07:16:30.444Z,97706.63
2023-02-19T07:18:59.146Z,97704.03
2023-02-19T07:21:28.096Z,97712.69
2023-02-19T07:23:56.488Z,97689.19
2023-02-19T07:26:25.446Z,97684.78
2023-02-19T07:28:54.924Z,97684.41
2023-02-19T07:31:25.150Z,97695.81
2023-02-19T07:33:53.860Z,97690.22
2023-02-19T07:36:23.524Z,97689.84
2023-02-19T07:38:55.658Z,97694.47
2023-02-19T07:41:24.423Z,97699.59
2023-02-19T07:43:52.921Z,97697.25
2023-02-19T07:46:23.783Z,97699.59
2023-02-19T07:48:51.840Z,97692.31
2023-02-19T07:51:21.642Z,97693.06
2023-02-19T07:53:51.387Z,97692.69
2023-02-19T07:56:20.526Z,97691.25
2023-02-19T07:58:48.655Z,97690.81
2023-02-19T08:01:18.487Z,97690.50
2023-02-19T08:03:49.435Z,97689.53
2023-02-19T08:06:18.399Z,97690.25
2023-02-19T08:08:46.417Z,97687.75
2023-02-19T08:11:43.044Z,97681.72
2023-02-19T08:14:11.049Z,97672.81
2023-02-19T08:16:43.217Z,97679.50
2023-02-19T08:19:12.921Z,97670.97
2023-02-19T08:21:41.052Z,97677.53
2023-02-19T08:24:09.238Z,97678.19
2023-02-19T08:26:37.563Z,97681.66
2023-02-19T08:29:06.221Z,97681.41
2023-02-19T08:31:35.480Z,97689.31
2023-02-19T08:34:04.164Z,97683.50
2023-02-19T08:36:33.617Z,97681.97
2023-02-19T08:39:01.687Z,97675.88
2023-02-19T08:41:29.715Z,97681.91
2023-02-19T08:43:57.893Z,97678.78
2023-02-19T08:46:26.092Z,97681.88
2023-02-19T08:48:54.193Z,97697.31
2023-02-19T08:51:22.238Z,97686.22
2023-02-19T08:53:51.690Z,97701.88
2023-02-19T08:56:19.746Z,97695.16
2023-02-19T08:58:48.076Z,97702.06
2023-02-19T09:01:19.163Z,97705.97
2023-02-19T09:03:47.403Z,97689.31
2023-02-19T09:06:18.424Z,97695.25
2023-02-19T09:08:47.021Z,97690.00
2023-02-19T09:11:16.752Z,97700.13
2023-02-19T09:13:44.915Z,97695.75
2023-02-19T09:16:13.513Z,97689.28
2023-02-19T09:18:41.610Z,97698.56
2023-02-19T09:21:10.064Z,97697.94
2023-02-19T09:23:38.678Z,97706.25
2023-02-19T09:26:10.268Z,97704.03
2023-02-19T09:28:42.047Z,97695.44
2023-02-19T09:31:12.379Z,97716.56
2023-02-19T09:33:44.452Z,97705.38
2023-02-19T09:36:13.447Z,97693.63
2023-02-19T09:38:41.618Z,97710.88
2023-02-19T09:41:15.312Z,97701.41
2023-02-19T09:43:45.236Z,97705.78
2023-02-19T09:46:24.786Z,97707.72
2023-02-19T09:48:54.358Z,97717.97
2023-02-19T09:51:24.050Z,97712.50
2023-02-19T09:53:53.217Z,97706.19
2023-02-19T09:56:21.314Z,97710.00
2023-02-19T09:58:53.986Z,97715.91
2023-02-19T10:01:23.757Z,97706.63
2023-02-19T10:03:51.888Z,97703.78
2023-02-19T10:06:23.576Z,97708.38
2023-02-19T10:08:54.029Z,97712.38
2023-02-19T10:11:23.661Z,97705.88
2023-02-19T10:14:09.436Z,97714.63
2023-02-19T10:16:41.710Z,97721.44
2023-02-19T10:19:12.165Z,97723.28
2023-02-19T10:21:40.699Z,97722.97
2023-02-19T10:24:14.940Z,97737.72
2023-02-19T10:26:43.092Z,97727.34
2023-02-19T10:29:12.602Z,97751.50
2023-02-19T10:31:40.734Z,97735.59
2023-02-19T10:34:19.491Z,97737.75
2023-02-19T10:36:50.355Z,97744.50
2023-02-19T10:39:42.939Z,97764.28
2023-02-19T10:42:19.400Z,97772.69
2023-02-19T10:44:52.882Z,97791.22
2023-02-19T10:47:24.194Z,97782.97
2023-02-19T10:49:53.689Z,97793.38
2023-02-19T10:52:26.693Z,97776.38
2023-02-19T10:54:57.751Z,97795.38
2023-02-19T10:57:33.018Z,97783.88
2023-02-19T11:00:05.545Z,97786.25
2023-02-19T11:02:33.664Z,97792.94
2023-02-19T11:05:08.523Z,97791.91
2023-02-19T11:07:38.508Z,97811.31
2023-02-19T11:10:08.890Z,97807.69
2023-02-19T11:12:37.001Z,97829.53
2023-02-19T11:15:22.358Z,97806.25
2023-02-19T11:17:56.904Z,97824.06
2023-02-19T11:20:25.576Z,97820.72
2023-02-19T11:22:59.669Z,97824.22
2023-02-19T11:25:28.474Z,97839.84
2023-02-19T11:27:59.425Z,97829.69
2023-02-19T11:30:38.130Z,97831.34
2023-02-19T11:33:24.014Z,97823.91
2023-02-19T11:35:55.075Z,97844.28
2023-02-19T11:38:23.271Z,97842.47
2023-02-19T11:40:59.741Z,97842.69
2023-02-19T11:43:44.188Z,97846.44
2023-02-19T11:46:22.290Z,97858.38
2023-02-19T11:49:10.327Z,97856.84
2023-02-19T11:52:03.125Z,97866.94
2023-02-19T11:54:48.766Z,97869.56
2023-02-19T11:57:28.697Z,97878.16
2023-02-19T12:00:13.784Z,97881.97
2023-02-19T12:03:04.408Z,97881.84
2023-02-19T12:05:41.328Z,97889.72
2023-02-19T12:08:32.544Z,97881.38
2023-02-19T12:11:13.048Z,97887.97
2023-02-19T12:14:03.065Z,97891.28
2023-02-19T12:16:35.674Z,97889.19
2023-02-19T12:19:43.613Z,97905.13
2023-02-19T12:22:26.534Z,97906.00
2023-02-19T12:25:23.741Z,97902.06
2023-02-19T12:28:19.758Z,97911.75
2023-02-19T12:31:09.024Z,97929.16
2023-02-19T12:34:02.783Z,97931.28
2023-02-19T12:36:38.822Z,97930.22
2023-02-19T12:39:19.722Z,97958.28
2023-02-19T12:41:57.470Z,97944.50
2023-02-19T12:44:37.089Z,97930.22
2023-02-19T12:47:08.420Z,97934.00
2023-02-19T12:49:40.484Z,97945.59
2023-02-19T12:52:16.111Z,97941.63
2023-02-19T12:54:47.531Z,97945.97
2023-02-19T12:57:19.667Z,97951.81
2023-02-19T12:59:51.630Z,97960.00
2023-02-19T13:02:24.886Z,97964.13
2023-02-19T13:05:01.265Z,97949.53
2023-02-19T13:07:34.660Z,97953.19
2023-02-19T13:10:23.083Z,97945.59
2023-02-19T13:12:53.185Z,97972.06
2023-02-19T13:15:26.128Z,97969.38
2023-02-19T13:17:57.184Z,97956.13
2023-02-19T13:20:32.591Z,97950.28
2023-02-19T13:23:26.232Z,97981.41
2023-02-19T13:26:12.092Z,97969.88
2023-02-19T13:28:53.374Z,98008.19
2023-02-19T13:31:43.203Z,98019.63
2023-02-19T13:34:18.845Z,98001.91
2023-02-19T13:36:49.153Z,98024.53
2023-02-19T13:39:22.324Z,98035.44
2023-02-19T13:41:52.873Z,97989.53
2023-02-19T13:44:23.236Z,98037.84
2023-02-19T13:46:51.841Z,98034.88
2023-02-19T13:49:43.153Z,98029.91
2023-02-19T13:52:50.821Z,98050.19
2023-02-19T13:55:52.028Z,98040.06
2023-02-19T13:58:58.242Z,98037.16
2023-02-19T14:02:08.898Z,98036.78
2023-02-19T14:04:51.237Z,98061.28
2023-02-19T14:07:35.618Z,98037.63
2023-02-19T14:10:04.892Z,98042.31
2023-02-19T14:12:36.170Z,98034.25
2023-02-19T14:15:41.665Z,98042.91
2023-02-19T14:18:45.074Z,98054.97
2023-02-19T14:21:23.481Z,98048.38
2023-02-19T14:23:55.055Z,98055.03
2023-02-19T14:26:24.767Z,98072.66
2023-02-19T14:28:55.209Z,98070.28
2023-02-19T14:31:29.230Z,98088.72
2023-02-19T14:34:00.593Z,98100.63
2023-02-19T14:36:35.012Z,98101.38
2023-02-19T14:39:06.738Z,98103.16
2023-02-19T14:41:40.452Z,98120.13
2023-02-19T14:44:18.157Z,98138.09
2023-02-19T14:46:54.528Z,98113.13
2023-02-19T14:49:29.254Z,98138.25
2023-02-19T14:52:01.038Z,98151.31
2023-02-19T14:54:45.761Z,98147.28
2023-02-19T14:57:19.002Z,98132.72
2023-02-19T14:59:57.876Z,98157.81
2023-02-19T15:02:27.210Z,98170.44
2023-02-19T15:04:56.244Z,98170.94
2023-02-19T15:07:27.677Z,98194.47
2023-02-19T15:10:03.627Z,98150.00
2023-02-19T15:12:36.102Z,98181.75
2023-02-19T15:15:07.284Z,98158.81
2023-02-19T15:17:40.334Z,98162.25
2023-02-19T15:20:13.495Z,98171.75
2023-02-19T15:22:42.713Z,98164.56
2023-02-19T15:25:17.558Z,98189.41
2023-02-19T15:27:45.763Z,98183.91
2023-02-19T15:30:24.049Z,98179.38
2023-02-19T15:32:57.169Z,98200.66
2023-02-19T15:35:27.507Z,98194.06
2023-02-19T15:37:56.530Z,98210.41
2023-02-19T15:40:30.624Z,98199.56
2023-02-19T15:43:00.380Z,98212.78
2023-02-19T15:45:35.346Z,98212.97
2023-02-19T15:48:08.193Z,98226.66
2023-02-19T15:50:40.107Z,98209.19
2023-02-19T15:53:13.325Z,98239.31
2023-02-19T15:55:46.035Z,98223.38
2023-02-19T15:58:18.861Z,98229.69
2023-02-19T16:00:50.920Z,98227.00
2023-02-19T16:03:21.372Z,98249.28
2023-02-19T16:05:59.873Z,98241.75
2023-02-19T16:08:31.432Z,98264.69
2023-02-19T16:11:01.540Z,98253.88
2023-02-19T16:13:31.548Z,98255.69
2023-02-19T16:16:16.200Z,98265.13
2023-02-19T16:18:47.767Z,98265.75
2023-02-19T16:21:18.323Z,98281.06
2023-02-19T16:23:49.394Z,98294.50
2023-02-19T16:26:18.659Z,98302.59
2023-02-19T16:28:52.896Z,98325.59
2023-02-19T16:31:25.125Z,98322.59
2023-02-19T16:33:53.557Z,98318.84
2023-02-19T16:36:41.852Z,98333.84
2023-02-19T16:39:21.215Z,98328.19
2023-02-19T16:42:14.583Z,98321.13
2023-02-19T16:44:44.369Z,98331.78
2023-02-19T16:47:24.248Z,98373.59
2023-02-19T16:49:52.642Z,98350.91
2023-02-19T16:52:20.693Z,98352.75
2023-02-19T16:54:49.651Z,98348.69
2023-02-19T16:57:18.400Z,98362.47
2023-02-19T16:59:46.439Z,98383.41
2023-02-19T17:02:22.321Z,98375.38
2023-02-19T17:04:51.959Z,98377.75
2023-02-19T17:07:20.176Z,98387.22
2023-02-19T17:09:48.312Z,98371.88
2023-02-19T17:12:18.160Z,98373.94
2023-02-19T17:14:46.287Z,98383.56
2023-02-19T17:17:14.558Z,98374.56
2023-02-19T17:19:44.083Z,98391.09
2023-02-19T17:22:16.837Z,98396.91
2023-02-19T17:24:46.045Z,98406.50
2023-02-19T17:27:14.496Z,98405.88
2023-02-19T17:29:42.795Z,98412.41
2023-02-19T17:32:10.994Z,98415.25
2023-02-19T17:34:39.087Z,98428.03
2023-02-19T17:37:08.529Z,98426.00
2023-02-19T17:39:36.560Z,98429.94
2023-02-19T17:42:05.371Z,98431.31
2023-02-19T17:44:33.501Z,98443.91
2023-02-19T17:47:02.240Z,98448.72
2023-02-19T17:49:30.301Z,98441.41
2023-02-19T17:51:59.658Z,98443.97
2023-02-19T17:54:29.086Z,98448.41
2023-02-19T17:56:57.274Z,98446.34
2023-02-19T17:59:25.350Z,98455.97
2023-02-19T18:01:53.421Z,98469.28
2023-02-19T18:04:21.554Z,98465.44
2023-02-19T18:06:49.592Z,98464.81
2023-02-19T18:09:19.471Z,98489.75
2023-02-19T18:11:49.429Z,98476.00
2023-02-19T18:14:17.640Z,98487.06
2023-02-19T18:16:50.358Z,98473.44
2023-02-19T18:19:18.935Z,98486.59
2023-02-19T18:21:48.268Z,98491.59
2023-02-19T18:24:16.625Z,98503.28
2023-02-19T18:26:44.875Z,98498.53
2023-02-19T18:29:14.673Z,98507.44
2023-02-19T18:31:42.881Z,98504.66
2023-02-19T18:34:18.052Z,98509.88
2023-02-19T18:36:46.631Z,98512.31
2023-02-19T18:39:14.905Z,98524.44
2023-02-19T18:41:47.092Z,98515.47
2023-02-19T18:44:18.724Z,98512.03
2023-02-19T18:46:47.007Z,98520.38
2023-02-19T18:49:16.471Z,98538.88
2023-02-19T18:51:44.805Z,98529.03
2023-02-19T18:54:12.987Z,98537.25
2023-02-19T18:56:44.725Z,98544.47
2023-02-19T18:59:14.000Z,98539.56
2023-02-19T19:01:43.946Z,98535.88
2023-02-19T19:04:12.355Z,98551.13
2023-02-19T19:06:40.462Z,98539.81
2023-02-19T19:09:09.154Z,98537.13
2023-02-19T19:11:38.168Z,98535.03
2023-02-19T19:14:06.287Z,98552.31
2023-02-19T19:16:34.451Z,98555.69
2023-02-19T19:19:04.028Z,98568.22
2023-02-19T19:21:32.232Z,98549.84
2023-02-19T19:24:00.545Z,98557.53
2023-02-19T19:26:28.704Z,98570.78
2023-02-19T19:28:56.895Z,98564.50
2023-02-19T19:31:25.547Z,98572.47
2023-02-19T19:33:54.042Z,98575.91
2023-02-19T19:36:24.726Z,98573.84
2023-02-19T19:38:52.974Z,98587.72
2023-02-19T19:41:22.096Z,98590.47
2023-02-19T19:43:50.191Z,98595.56
2023-02-19T19:46:19.942Z,98590.44
2023-02-19T19:48:48.775Z,98599.19
2023-02-19T19:51:17.754Z,98591.38
2023-02-19T19:53:50.126Z,98584.47
2023-02-19T19:56:18.718Z,98605.78
2023-02-19T19:58:48.747Z,98607.53
2023-02-19T20:01:21.129Z,98597.56
2023-02-19T20:03:51.119Z,98609.72
2023-02-19T20:06:27.131Z,98608.53
2023-02-19T20:08:57.031Z,98616.41
2023-02-19T20:11:25.592Z,98619.66
2023-02-19T20:13:53.825Z,98613.44
2023-02-19T20:16:25.968Z,98620.06
2023-02-19T20:18:54.071Z,98616.97
2023-02-19T20:21:22.198Z,98623.78
2023-02-19T20:23:50.539Z,98613.13
2023-02-19T20:26:26.113Z,98614.88
2023-02-19T20:28:56.563Z,98605.63
2023-02-19T20:31:25.458Z,98608.78
2023-02-19T20:33:54.492Z,98621.69
2023-02-19T20:36:22.649Z,98606.09
2023-02-19T20:38:51.288Z,98610.72
2023-02-19T20:41:19.434Z,98611.91
2023-02-19T20:43:48.951Z,98619.97
2023-02-19T20:46:17.327Z,98622.38
2023-02-19T20:48:46.121Z,98633.34
2023-02-19T20:51:14.281Z,98641.66
2023-02-19T20:53:43.494Z,98626.13
2023-02-19T20:56:12.644Z,98640.16
2023-02-19T20:58:43.366Z,98636.06
2023-02-19T21:01:13.272Z,98644.41
2023-02-19T21:03:41.671Z,98650.19
2023-02-19T21:06:10.167Z,98646.25
2023-02-19T21:08:38.356Z,98653.66
2023-02-19T21:11:06.933Z,98654.84
2023-02-19T21:13:35.202Z,98662.53
2023-02-19T21:16:03.669Z,98666.03
2023-02-19T21:18:33.213Z,98670.44
2023-02-19T21:21:01.584Z,98668.78
2023-02-19T21:23:29.692Z,98678.03
2023-02-19T21:25:57.981Z,98676.19
2023-02-19T21:28:26.142Z,98685.97
2023-02-19T21:30:54.299Z,98681.91
2023-02-19T21:33:22.359Z,98689.75
2023-02-19T21:35:51.848Z,98689.13
2023-02-19T21:38:19.988Z,98697.28
2023-02-19T21:40:48.093Z,98690.88
2023-02-19T21:43:16.482Z,98689.66
2023-02-19T21:45:44.596Z,98703.84
2023-02-19T21:48:14.137Z,98701.25
2023-02-19T21:50:45.543Z,98714.22
2023-02-19T21:53:15.606Z,98712.66
2023-02-19T21:55:57.440Z,98719.09
2023-02-19T21:58:26.917Z,98732.91
2023-02-19T22:00:56.402Z,98726.41
2023-02-19T22:03:26.568Z,98699.16
2023-02-19T22:05:54.783Z,98711.44
2023-02-19T22:08:24.249Z,98719.50
2023-02-19T22:10:52.334Z,98722.31
2023-02-19T22:13:20.423Z,98739.84
2023-02-19T22:15:48.561Z,98725.84
2023-02-19T22:18:16.721Z,98732.59
2023-02-19T22:20:44.785Z,98737.69
2023-02-19T22:23:12.931Z,98738.72
2023-02-19T22:25:42.545Z,98742.84
2023-02-19T22:28:10.642Z,98738.59
2023-02-19T22:30:38.848Z,98737.19
2023-02-19T22:33:07.129Z,98748.16
2023-02-19T22:35:35.217Z,98755.31
2023-02-19T22:38:03.283Z,98739.41
2023-02-19T22:40:31.397Z,98758.34
2023-02-19T22:43:00.841Z,98751.50
2023-02-19T22:45:28.866Z,98762.38
2023-02-19T22:47:57.148Z,98768.81
2023-02-19T22:50:26.529Z,98767.16
2023-02-19T22:52:55.726Z,98775.16
2023-02-19T22:55:23.833Z,98762.16
2023-02-19T22:57:51.945Z,98769.28
2023-02-19T23:00:22.452Z,98766.50
2023-02-19T23:02:50.752Z,98776.09
2023-02-19T23:05:19.057Z,98776.53
2023-02-19T23:07:47.411Z,98777.69
2023-02-19T23:10:15.675Z,98782.25
2023-02-19T23:12:43.867Z,98771.00
2023-02-19T23:15:12.450Z,98779.41
2023-02-19T23:17:41.940Z,98773.34
2023-02-19T23:20:10.654Z,98772.22
2023-02-19T23:22:38.749Z,98773.00
2023-02-19T23:25:07.418Z,98773.16
2023-02-19T23:27:35.464Z,98773.56
2023-02-19T23:30:03.555Z,98782.13
2023-02-19T23:32:31.612Z,98789.41
2023-02-19T23:35:01.067Z,98798.19
2023-02-19T23:37:29.135Z,98787.91
2023-02-19T23:39:57.191Z,98786.47
2023-02-19T23:42:25.260Z,98784.41
2023-02-19T23:44:53.326Z,98784.53
2023-02-19T23:47:22.538Z,98788.69
2023-02-19T23:49:50.612Z,98787.00
2023-02-19T23:52:20.024Z,98795.56
2023-02-19T23:54:48.462Z,98792.00
2023-02-19T23:57:16.439Z,98786.84
2023-02-19T23:59:44.894Z,98774.19
